To NAV CANADA Home Page Login to a new session Search on AWWS site Feedback and Comments Disclaimer Vers la page française équivalente Tips FAQ What's new on the site To the Forecasts and Observations / NOTAM section To "File a Flight Plan" website Publications and other links Update of the User's profile FIC Telephone Numbers My Weather Data Folder Route Weather Data Regional Weather Data Local Weather Data To the Forecasts and Observations / NOTAM section
Request Generated 04/21/2015 at 08:19:58 UTC . Weather information available at that time is displayed.

METAR/TAF

LYNN LAKE/MB    (show WxCam)

METAR CYYL 210800Z AUTO 12003KT 9SM BKN100 M04/M06 A3001 RMK SLP182=
METAR CYYL 210700Z AUTO 14003KT 9SM BKN110 M03/M06 A3000 RMK SLP179=
METAR CYYL 210600Z AUTO 13002KT 9SM CLR M02/M06 A3000 RMK SLP179=

TAF CYYL 210638Z 2107/2119 VRB03KT P6SM SKC
FM211200 11005KT P6SM FEW012 SCT060 TEMPO 2112/2119 4SM -SHSN BR
BKN012 BKN060
BECMG 2115/2117 11010KT
RMK FCST BASED ON AUTO OBS. NXT FCST BY 211300Z=
Your time UTC time
Weather data provided by Environment Canada and NAV CANADA